Arthur Brusco — WDC3449 — position and weather

sailwx.info

Track history (hours):
 
Tides and Currents Weather Stations Pressure Air Temp Water Temp Dewpoint Dewpoint Depression Visibility Wind Speed Wind Dir Waves Ship Positions

Arthur Brusco

Owner: Brusco Tug & Barge, Inc, Longview, WA. More information available from US FCC via Universal Licensing System and Coast Guard Vessel Documentation Center.

Last reported at 2016-Dec-05 18:31 UTC. Time now 2016-Dec-05 18:44 UTC.
Position N 38°01' W 122°23'.

Length 35 m; draft 3.2 m.

Type: Other ship. MMSI: 271040404.

Date/timePositionNaut miles runAvg speedWind from/ knotsBaromVisibWave heightAir tempDewpointWater temp
2016-Dec-05 18:31N 38°01' W 122°23'1010.0
2016-Dec-05 17:31N 38°03' W 122°11'2 0.3
2016-Dec-05 11:18N 38°02' W 122°09'7 8.9
2016-Dec-05 10:27N 38°03' W 122°18'9 8.8
2016-Dec-05 09:26N 37°56' W 122°26'7 8.4
2016-Dec-05 08:34N 37°50' W 122°22'2 1.8
2016-Dec-05 07:34N 37°49' W 122°20'9 8.9
2016-Dec-05 06:33N 37°56' W 122°26'1010.3
2016-Dec-05 05:33N 38°03' W 122°16'6 0.8
2016-Dec-04 22:16N 38°02' W 122°09'6 7.9
2016-Dec-04 21:33N 38°04' W 122°16'8 8.0
2016-Dec-04 20:33N 37°60' W 122°25'8 7.7
2016-Dec-04 19:34N 37°52' W 122°25'6 5.6
2016-Dec-04 18:34N 37°49' W 122°19'0 0.2
2016-Dec-04 17:34N 37°49' W 122°20'1 1.0
2016-Dec-04 16:33N 37°49' W 122°19'0 0.0
2016-Dec-04 15:34N 37°49' W 122°19'0 0.0
2016-Dec-04 14:34N 37°49' W 122°19'0 0.0
2016-Dec-04 13:34N 37°49' W 122°19'0 0.0
2016-Dec-04 12:34N 37°49' W 122°19'0 0.0
2016-Dec-04 11:33N 37°49' W 122°19'0 0.0
2016-Dec-04 10:34N 37°49' W 122°19'0 0.0
2016-Dec-04 09:34N 37°49' W 122°19'0 0.0
2016-Dec-04 08:33N 37°49' W 122°19'0 0.0
2016-Dec-04 07:34N 37°49' W 122°19'0 0.0
2016-Dec-04 06:33N 37°49' W 122°19'0 0.0
2016-Dec-04 05:33N 37°49' W 122°19'0 0.0
2016-Dec-04 04:34N 37°49' W 122°19'0 0.0
2016-Dec-04 03:34N 37°49' W 122°19'0 0.0
2016-Dec-04 02:33N 37°49' W 122°19'0 0.0
2016-Dec-04 01:34N 37°49' W 122°19'2 2.5
2016-Dec-04 00:33N 37°50' W 122°22'9 8.7
2016-Dec-03 23:33N 37°58' W 122°26'9 8.6
2016-Dec-03 22:33N 38°03' W 122°17'4 0.5
2016-Dec-03 15:08N 38°03' W 122°13'7 8.0
2016-Dec-03 14:17N 38°02' W 122°21'7 7.5
2016-Dec-03 13:23N 37°56' W 122°26'7 8.4
2016-Dec-03 12:34N 37°50' W 122°22'3 3.0
2016-Dec-03 11:34N 37°49' W 122°19'0 0.0
2016-Dec-03 10:34N 37°49' W 122°19'0 0.0
2016-Dec-03 09:33N 37°49' W 122°19'0 0.0
2016-Dec-03 08:33N 37°49' W 122°19'0 0.0
2016-Dec-03 07:33N 37°49' W 122°19'0 0.0
2016-Dec-03 06:33N 37°49' W 122°19'0 0.0
2016-Dec-03 05:33N 37°49' W 122°19'0 0.0
2016-Dec-03 04:33N 37°49' W 122°19'7 7.2
2016-Dec-03 03:33N 37°54' W 122°25'1110.7
2016-Dec-03 02:31N 38°03' W 122°17'3 0.2
2016-Dec-02 14:12N 38°04' W 122°13'7 8.7
2016-Dec-02 13:23N 38°02' W 122°22'7 8.1
2016-Dec-02 12:33N 37°56' W 122°27'9 9.0
2016-Dec-02 11:34N 37°48' W 122°22'1 1.0
2016-Dec-02 10:33N 37°48' W 122°21'1 1.3
2016-Dec-02 09:33N 37°50' W 122°21'0 0.0
2016-Dec-02 08:33N 37°50' W 122°21'0 0.0
2016-Dec-02 07:34N 37°50' W 122°21'0 0.0
2016-Dec-02 06:34N 37°50' W 122°21'0 0.0
2016-Dec-02 05:34N 37°50' W 122°21'0 0.0
2016-Dec-02 04:34N 37°50' W 122°21'0 0.0
2016-Dec-02 03:33N 37°50' W 122°21'0 0.1
2016-Dec-02 02:33N 37°50' W 122°21'0 0.0
2016-Dec-02 01:33N 37°50' W 122°21'0 0.0
2016-Dec-02 00:33N 37°50' W 122°21'2 2.2
2016-Dec-01 23:33N 37°49' W 122°19'0 0.1
2016-Dec-01 22:34N 37°49' W 122°19'0 0.0
2016-Dec-01 21:34N 37°49' W 122°19'0 0.0
2016-Dec-01 20:33N 37°49' W 122°19'0 0.0
2016-Dec-01 19:34N 37°49' W 122°19'0 0.0
2016-Dec-01 18:34N 37°49' W 122°19'0 0.0
2016-Dec-01 17:33N 37°49' W 122°19'0 0.0
2016-Dec-01 16:34N 37°49' W 122°19'2 2.3
2016-Dec-01 15:34N 37°50' W 122°21'2 2.0
2016-Dec-01 14:34N 37°51' W 122°23'10 9.7
2016-Dec-01 13:31N 38°01' W 122°23'1010.0
2016-Dec-01 12:33N 38°03' W 122°11'2 0.4
2016-Dec-01 07:12N 38°02' W 122°09'5 8.1
2016-Dec-01 06:33N 38°04' W 122°15'11 8.7
2016-Dec-01 05:19N 37°57' W 122°26'7 9.2
2016-Dec-01 04:33N 37°51' W 122°23'4 3.8
2016-Dec-01 03:34N 37°49' W 122°19'1 1.0
2016-Dec-01 02:33N 37°49' W 122°20'3 3.5
2016-Dec-01 01:33N 37°48' W 122°24'0 0.3
2016-Dec-01 00:33N 37°49' W 122°24'0 0.0
2016-Nov-30 23:34N 37°49' W 122°24'0 0.1
2016-Nov-30 22:34N 37°49' W 122°24'0 0.0
2016-Nov-30 21:34N 37°49' W 122°24'0 0.0
2016-Nov-30 20:34N 37°49' W 122°24'0 0.0
2016-Nov-30 19:33N 37°49' W 122°24'0 0.0
2016-Nov-30 18:33N 37°49' W 122°24'2 2.5
2016-Nov-30 17:34N 37°50' W 122°22'1 0.7
2016-Nov-30 16:33N 37°50' W 122°21'0 0.0
2016-Nov-30 15:33N 37°50' W 122°21'0 0.1
2016-Nov-30 14:34N 37°50' W 122°21'0 0.0
2016-Nov-30 13:34N 37°50' W 122°21'0 0.0
2016-Nov-30 12:34N 37°50' W 122°21'0 0.0
2016-Nov-30 11:33N 37°50' W 122°21'0 0.0
2016-Nov-30 10:33N 37°50' W 122°21'0 0.0
2016-Nov-30 09:34N 37°50' W 122°21'0 0.1
2016-Nov-30 08:33N 37°50' W 122°21'7 6.8
2016-Nov-30 07:34N 37°56' W 122°25'7 6.8
2016-Nov-30 06:33N 38°02' W 122°22'10 9.0
2016-Nov-30 05:25N 38°02' W 122°09'4 0.5
2016-Nov-29 21:11N 38°04' W 122°13'7 9.4
2016-Nov-29 20:28N 38°02' W 122°21'8 8.7
2016-Nov-29 19:32N 37°55' W 122°26'6 6.0
2016-Nov-29 18:34N 37°49' W 122°24'9 9.0
2016-Nov-29 17:32N 37°58' W 122°27'6 6.6
2016-Nov-29 16:33N 37°52' W 122°24'5 4.9
2016-Nov-29 15:34N 37°49' W 122°19'0 0.0
2016-Nov-29 14:33N 37°49' W 122°19'0 0.0
2016-Nov-29 13:33N 37°49' W 122°19'0 0.0
2016-Nov-29 12:33N 37°49' W 122°19'4 4.4
2016-Nov-29 11:33N 37°49' W 122°24'0 0.0
2016-Nov-29 10:33N 37°49' W 122°24'0 0.0
2016-Nov-29 09:33N 37°49' W 122°24'0 0.4
2016-Nov-29 08:33N 37°49' W 122°24'6 5.9
2016-Nov-29 07:33N 37°55' W 122°26'7 7.4
2016-Nov-29 06:33N 38°01' W 122°23'9 8.9
2016-Nov-29 05:31N 38°03' W 122°11'3 0.4
2016-Nov-28 21:33N 38°04' W 122°15'9 8.4
2016-Nov-28 20:25N 37°59' W 122°26'8 9.1
2016-Nov-28 19:33N 37°51' W 122°25'4 3.8
2016-Nov-28 18:33N 37°55' W 122°26'9 8.6
2016-Nov-28 17:29N 38°03' W 122°20'11 9.2
2016-Nov-28 16:15N 38°03' W 122°06'8 1.0
2016-Nov-28 08:29N 38°04' W 122°15'9 9.9
2016-Nov-28 07:32N 37°59' W 122°26'9 9.7
2016-Nov-28 06:33N 37°49' W 122°24'1 0.6
2016-Nov-28 05:33N 37°49' W 122°24'0 0.0
2016-Nov-28 04:33N 37°49' W 122°24'3 3.3
2016-Nov-28 03:33N 37°48' W 122°20'5 4.7
2016-Nov-28 02:33N 37°46' W 122°15'6 6.2
2016-Nov-28 01:33N 37°48' W 122°22'2 1.9
2016-Nov-28 00:33N 37°48' W 122°20'1 1.1
2016-Nov-27 23:33N 37°49' W 122°19'1 0.6
2016-Nov-27 22:33N 37°49' W 122°19'3 3.1
2016-Nov-27 21:33N 37°48' W 122°22'2 1.6
2016-Nov-27 20:33N 37°49' W 122°24'0 0.0
2016-Nov-27 19:33N 37°48' W 122°24'2 2.1
2016-Nov-27 18:33N 37°51' W 122°24'9 8.3
2016-Nov-27 17:28N 37°60' W 122°25'8 8.5
2016-Nov-27 16:33N 38°03' W 122°16'8 8.5
2016-Nov-27 15:33N 38°03' W 122°06'6 0.8
2016-Nov-27 08:33N 38°04' W 122°13'10 9.5
2016-Nov-27 07:33N 38°00' W 122°24'9 8.8
2016-Nov-27 06:33N 37°52' W 122°25'3 2.8
2016-Nov-27 05:33N 37°49' W 122°24'2 2.4
2016-Nov-27 04:33N 37°51' W 122°25'8 7.8
2016-Nov-27 03:31N 37°59' W 122°27'0 0.0
2016-Nov-27 02:33N 37°59' W 122°27'0 0.1
2016-Nov-27 01:33N 37°59' W 122°27'0 0.1
2016-Nov-27 00:23N 37°59' W 122°26'0 0.0
2016-Nov-26 22:19N 37°59' W 122°26'5 2.7
2016-Nov-26 20:33N 38°02' W 122°22'7 0.8
2016-Nov-26 11:29N 38°04' W 122°13'7 7.5
2016-Nov-26 10:33N 38°02' W 122°22'5 3.9
2016-Nov-26 09:21N 37°59' W 122°26'2 3.1
2016-Nov-26 08:33N 37°56' W 122°27'8 8.1
2016-Nov-26 07:33N 37°49' W 122°24'5 5.1
2016-Nov-26 06:33N 37°54' W 122°26'6 5.6
2016-Nov-26 05:32N 37°59' W 122°26'8 7.8
2016-Nov-26 04:33N 37°52' W 122°25'5 5.2
2016-Nov-26 03:34N 37°49' W 122°19'0 0.2
2016-Nov-26 02:34N 37°49' W 122°19'0 0.1
2016-Nov-26 01:33N 37°49' W 122°18'0 0.0
2016-Nov-26 00:33N 37°49' W 122°18'1 0.6
2016-Nov-25 23:33N 37°49' W 122°19'6 6.2
2016-Nov-25 22:33N 37°54' W 122°23'1 1.1
2016-Nov-25 21:33N 37°55' W 122°22'0 0.0
2016-Nov-25 20:33N 37°55' W 122°22'0 0.0
2016-Nov-25 19:33N 37°55' W 122°22'1 0.7
2016-Nov-25 18:33N 37°54' W 122°22'  
Track history (hours):
 
Tides and Currents Weather Stations Pressure Air Temp Water Temp Dewpoint Dewpoint Depression Visibility Wind Speed Wind Dir Waves Ship Positions

Arthur Brusco

Owner: Brusco Tug & Barge, Inc, Longview, WA. More information available from US FCC via Universal Licensing System and Coast Guard Vessel Documentation Center.

Last reported at 2016-Dec-05 18:31 UTC. Time now 2016-Dec-05 18:44 UTC.
Position N 38°01' W 122°23'.

Length 35 m; draft 3.2 m.

Type: Other ship. MMSI: 271040404.

Date/timePositionNaut miles runAvg speedWind from/ knotsBaromVisibWave heightAir tempDewpointWater temp
2016-Dec-05 18:31N 38°01' W 122°23'1010.0
2016-Dec-05 17:31N 38°03' W 122°11'2 0.3
2016-Dec-05 11:18N 38°02' W 122°09'7 8.9
2016-Dec-05 10:27N 38°03' W 122°18'9 8.8
2016-Dec-05 09:26N 37°56' W 122°26'7 8.4
2016-Dec-05 08:34N 37°50' W 122°22'2 1.8
2016-Dec-05 07:34N 37°49' W 122°20'9 8.9
2016-Dec-05 06:33N 37°56' W 122°26'1010.3
2016-Dec-05 05:33N 38°03' W 122°16'6 0.8
2016-Dec-04 22:16N 38°02' W 122°09'6 7.9
2016-Dec-04 21:33N 38°04' W 122°16'8 8.0
2016-Dec-04 20:33N 37°60' W 122°25'8 7.7
2016-Dec-04 19:34N 37°52' W 122°25'6 5.6
2016-Dec-04 18:34N 37°49' W 122°19'0 0.2
2016-Dec-04 17:34N 37°49' W 122°20'1 1.0
2016-Dec-04 16:33N 37°49' W 122°19'0 0.0
2016-Dec-04 15:34N 37°49' W 122°19'0 0.0
2016-Dec-04 14:34N 37°49' W 122°19'0 0.0
2016-Dec-04 13:34N 37°49' W 122°19'0 0.0
2016-Dec-04 12:34N 37°49' W 122°19'0 0.0
2016-Dec-04 11:33N 37°49' W 122°19'0 0.0
2016-Dec-04 10:34N 37°49' W 122°19'0 0.0
2016-Dec-04 09:34N 37°49' W 122°19'0 0.0
2016-Dec-04 08:33N 37°49' W 122°19'0 0.0
2016-Dec-04 07:34N 37°49' W 122°19'0 0.0
2016-Dec-04 06:33N 37°49' W 122°19'0 0.0
2016-Dec-04 05:33N 37°49' W 122°19'0 0.0
2016-Dec-04 04:34N 37°49' W 122°19'0 0.0
2016-Dec-04 03:34N 37°49' W 122°19'0 0.0
2016-Dec-04 02:33N 37°49' W 122°19'0 0.0
2016-Dec-04 01:34N 37°49' W 122°19'2 2.5
2016-Dec-04 00:33N 37°50' W 122°22'9 8.7
2016-Dec-03 23:33N 37°58' W 122°26'9 8.6
2016-Dec-03 22:33N 38°03' W 122°17'4 0.5
2016-Dec-03 15:08N 38°03' W 122°13'7 8.0
2016-Dec-03 14:17N 38°02' W 122°21'7 7.5
2016-Dec-03 13:23N 37°56' W 122°26'7 8.4
2016-Dec-03 12:34N 37°50' W 122°22'3 3.0
2016-Dec-03 11:34N 37°49' W 122°19'0 0.0
2016-Dec-03 10:34N 37°49' W 122°19'0 0.0
2016-Dec-03 09:33N 37°49' W 122°19'0 0.0
2016-Dec-03 08:33N 37°49' W 122°19'0 0.0
2016-Dec-03 07:33N 37°49' W 122°19'0 0.0
2016-Dec-03 06:33N 37°49' W 122°19'0 0.0
2016-Dec-03 05:33N 37°49' W 122°19'0 0.0
2016-Dec-03 04:33N 37°49' W 122°19'7 7.2
2016-Dec-03 03:33N 37°54' W 122°25'1110.7
2016-Dec-03 02:31N 38°03' W 122°17'3 0.2
2016-Dec-02 14:12N 38°04' W 122°13'7 8.7
2016-Dec-02 13:23N 38°02' W 122°22'7 8.1
2016-Dec-02 12:33N 37°56' W 122°27'9 9.0
2016-Dec-02 11:34N 37°48' W 122°22'1 1.0
2016-Dec-02 10:33N 37°48' W 122°21'1 1.3
2016-Dec-02 09:33N 37°50' W 122°21'0 0.0
2016-Dec-02 08:33N 37°50' W 122°21'0 0.0
2016-Dec-02 07:34N 37°50' W 122°21'0 0.0
2016-Dec-02 06:34N 37°50' W 122°21'0 0.0
2016-Dec-02 05:34N 37°50' W 122°21'0 0.0
2016-Dec-02 04:34N 37°50' W 122°21'0 0.0
2016-Dec-02 03:33N 37°50' W 122°21'0 0.1
2016-Dec-02 02:33N 37°50' W 122°21'0 0.0
2016-Dec-02 01:33N 37°50' W 122°21'0 0.0
2016-Dec-02 00:33N 37°50' W 122°21'2 2.2
2016-Dec-01 23:33N 37°49' W 122°19'0 0.1
2016-Dec-01 22:34N 37°49' W 122°19'0 0.0
2016-Dec-01 21:34N 37°49' W 122°19'0 0.0
2016-Dec-01 20:33N 37°49' W 122°19'0 0.0
2016-Dec-01 19:34N 37°49' W 122°19'0 0.0
2016-Dec-01 18:34N 37°49' W 122°19'0 0.0
2016-Dec-01 17:33N 37°49' W 122°19'0 0.0
2016-Dec-01 16:34N 37°49' W 122°19'2 2.3
2016-Dec-01 15:34N 37°50' W 122°21'2 2.0
2016-Dec-01 14:34N 37°51' W 122°23'10 9.7
2016-Dec-01 13:31N 38°01' W 122°23'1010.0
2016-Dec-01 12:33N 38°03' W 122°11'2 0.4
2016-Dec-01 07:12N 38°02' W 122°09'5 8.1
2016-Dec-01 06:33N 38°04' W 122°15'11 8.7
2016-Dec-01 05:19N 37°57' W 122°26'7 9.2
2016-Dec-01 04:33N 37°51' W 122°23'4 3.8
2016-Dec-01 03:34N 37°49' W 122°19'1 1.0
2016-Dec-01 02:33N 37°49' W 122°20'3 3.5
2016-Dec-01 01:33N 37°48' W 122°24'0 0.3
2016-Dec-01 00:33N 37°49' W 122°24'0 0.0
2016-Nov-30 23:34N 37°49' W 122°24'0 0.1
2016-Nov-30 22:34N 37°49' W 122°24'0 0.0
2016-Nov-30 21:34N 37°49' W 122°24'0 0.0
2016-Nov-30 20:34N 37°49' W 122°24'0 0.0
2016-Nov-30 19:33N 37°49' W 122°24'0 0.0
2016-Nov-30 18:33N 37°49' W 122°24'2 2.5
2016-Nov-30 17:34N 37°50' W 122°22'1 0.7
2016-Nov-30 16:33N 37°50' W 122°21'0 0.0
2016-Nov-30 15:33N 37°50' W 122°21'0 0.1
2016-Nov-30 14:34N 37°50' W 122°21'0 0.0
2016-Nov-30 13:34N 37°50' W 122°21'0 0.0
2016-Nov-30 12:34N 37°50' W 122°21'0 0.0
2016-Nov-30 11:33N 37°50' W 122°21'0 0.0
2016-Nov-30 10:33N 37°50' W 122°21'0 0.0
2016-Nov-30 09:34N 37°50' W 122°21'0 0.1
2016-Nov-30 08:33N 37°50' W 122°21'7 6.8
2016-Nov-30 07:34N 37°56' W 122°25'7 6.8
2016-Nov-30 06:33N 38°02' W 122°22'10 9.0
2016-Nov-30 05:25N 38°02' W 122°09'4 0.5
2016-Nov-29 21:11N 38°04' W 122°13'7 9.4
2016-Nov-29 20:28N 38°02' W 122°21'8 8.7
2016-Nov-29 19:32N 37°55' W 122°26'6 6.0
2016-Nov-29 18:34N 37°49' W 122°24'9 9.0
2016-Nov-29 17:32N 37°58' W 122°27'6 6.6
2016-Nov-29 16:33N 37°52' W 122°24'5 4.9
2016-Nov-29 15:34N 37°49' W 122°19'0 0.0
2016-Nov-29 14:33N 37°49' W 122°19'0 0.0
2016-Nov-29 13:33N 37°49' W 122°19'0 0.0
2016-Nov-29 12:33N 37°49' W 122°19'4 4.4
2016-Nov-29 11:33N 37°49' W 122°24'0 0.0
2016-Nov-29 10:33N 37°49' W 122°24'0 0.0
2016-Nov-29 09:33N 37°49' W 122°24'0 0.4
2016-Nov-29 08:33N 37°49' W 122°24'6 5.9
2016-Nov-29 07:33N 37°55' W 122°26'7 7.4
2016-Nov-29 06:33N 38°01' W 122°23'9 8.9
2016-Nov-29 05:31N 38°03' W 122°11'3 0.4
2016-Nov-28 21:33N 38°04' W 122°15'9 8.4
2016-Nov-28 20:25N 37°59' W 122°26'8 9.1
2016-Nov-28 19:33N 37°51' W 122°25'4 3.8
2016-Nov-28 18:33N 37°55' W 122°26'9 8.6
2016-Nov-28 17:29N 38°03' W 122°20'11 9.2
2016-Nov-28 16:15N 38°03' W 122°06'8 1.0
2016-Nov-28 08:29N 38°04' W 122°15'9 9.9
2016-Nov-28 07:32N 37°59' W 122°26'9 9.7
2016-Nov-28 06:33N 37°49' W 122°24'1 0.6
2016-Nov-28 05:33N 37°49' W 122°24'0 0.0
2016-Nov-28 04:33N 37°49' W 122°24'3 3.3
2016-Nov-28 03:33N 37°48' W 122°20'5 4.7
2016-Nov-28 02:33N 37°46' W 122°15'6 6.2
2016-Nov-28 01:33N 37°48' W 122°22'2 1.9
2016-Nov-28 00:33N 37°48' W 122°20'1 1.1
2016-Nov-27 23:33N 37°49' W 122°19'1 0.6
2016-Nov-27 22:33N 37°49' W 122°19'3 3.1
2016-Nov-27 21:33N 37°48' W 122°22'2 1.6
2016-Nov-27 20:33N 37°49' W 122°24'0 0.0
2016-Nov-27 19:33N 37°48' W 122°24'2 2.1
2016-Nov-27 18:33N 37°51' W 122°24'9 8.3
2016-Nov-27 17:28N 37°60' W 122°25'8 8.5
2016-Nov-27 16:33N 38°03' W 122°16'8 8.5
2016-Nov-27 15:33N 38°03' W 122°06'6 0.8
2016-Nov-27 08:33N 38°04' W 122°13'10 9.5
2016-Nov-27 07:33N 38°00' W 122°24'9 8.8
2016-Nov-27 06:33N 37°52' W 122°25'3 2.8
2016-Nov-27 05:33N 37°49' W 122°24'2 2.4
2016-Nov-27 04:33N 37°51' W 122°25'8 7.8
2016-Nov-27 03:31N 37°59' W 122°27'0 0.0
2016-Nov-27 02:33N 37°59' W 122°27'0 0.1
2016-Nov-27 01:33N 37°59' W 122°27'0 0.1
2016-Nov-27 00:23N 37°59' W 122°26'0 0.0
2016-Nov-26 22:19N 37°59' W 122°26'5 2.7
2016-Nov-26 20:33N 38°02' W 122°22'7 0.8
2016-Nov-26 11:29N 38°04' W 122°13'7 7.5
2016-Nov-26 10:33N 38°02' W 122°22'5 3.9
2016-Nov-26 09:21N 37°59' W 122°26'2 3.1
2016-Nov-26 08:33N 37°56' W 122°27'8 8.1
2016-Nov-26 07:33N 37°49' W 122°24'5 5.1
2016-Nov-26 06:33N 37°54' W 122°26'6 5.6
2016-Nov-26 05:32N 37°59' W 122°26'8 7.8
2016-Nov-26 04:33N 37°52' W 122°25'5 5.2
2016-Nov-26 03:34N 37°49' W 122°19'0 0.2
2016-Nov-26 02:34N 37°49' W 122°19'0 0.1
2016-Nov-26 01:33N 37°49' W 122°18'0 0.0
2016-Nov-26 00:33N 37°49' W 122°18'1 0.6
2016-Nov-25 23:33N 37°49' W 122°19'6 6.2
2016-Nov-25 22:33N 37°54' W 122°23'1 1.1
2016-Nov-25 21:33N 37°55' W 122°22'0 0.0
2016-Nov-25 20:33N 37°55' W 122°22'0 0.0
2016-Nov-25 19:33N 37°55' W 122°22'1 0.7
2016-Nov-25 18:33N 37°54' W 122°22'  

Dump ship's entire track history